createdAt,value
2018-03-23T00:00:02.818Z,997.54
2018-03-23T00:01:02.784Z,997.55
2018-03-23T00:02:02.828Z,997.55
2018-03-23T00:03:02.761Z,997.54
2018-03-23T00:04:02.743Z,997.52
2018-03-23T00:05:02.781Z,997.52
2018-03-23T00:06:02.705Z,997.53
2018-03-23T00:07:02.696Z,997.52
2018-03-23T00:08:02.727Z,997.49
2018-03-23T00:09:02.762Z,997.50
2018-03-23T00:10:02.626Z,997.47
2018-03-23T00:11:02.558Z,997.49
2018-03-23T00:12:02.595Z,997.50
2018-03-23T00:13:02.578Z,997.50
2018-03-23T00:14:02.521Z,997.48
2018-03-23T00:15:02.591Z,997.48
2018-03-23T00:16:02.522Z,997.49
2018-03-23T00:17:02.456Z,997.51
2018-03-23T00:18:02.496Z,997.49
2018-03-23T00:19:02.386Z,997.54
2018-03-23T00:20:02.375Z,997.50
2018-03-23T00:21:02.385Z,997.51
2018-03-23T00:22:02.336Z,997.49
2018-03-23T00:23:02.316Z,997.49
2018-03-23T00:24:02.370Z,997.50
2018-03-23T00:25:02.310Z,997.48
2018-03-23T00:26:02.258Z,997.53
2018-03-23T00:27:02.241Z,997.52
2018-03-23T00:28:02.214Z,997.49
2018-03-23T00:29:02.204Z,997.48
2018-03-23T00:30:02.218Z,997.50
2018-03-23T00:31:02.140Z,997.48
2018-03-23T00:32:02.190Z,997.47
2018-03-23T00:33:02.208Z,997.45
2018-03-23T00:34:02.103Z,997.47
2018-03-23T00:35:02.044Z,997.44
2018-03-23T00:36:02.033Z,997.43
2018-03-23T00:37:02.066Z,997.43
2018-03-23T00:38:01.981Z,997.39
2018-03-23T00:39:01.949Z,997.37
2018-03-23T00:40:01.952Z,997.42
2018-03-23T00:41:01.911Z,997.41
2018-03-23T00:42:01.946Z,997.38
2018-03-23T00:43:01.907Z,997.36
2018-03-23T00:44:01.898Z,997.38
2018-03-23T00:45:01.876Z,997.34
2018-03-23T00:46:01.869Z,997.31
2018-03-23T00:47:01.824Z,997.33
2018-03-23T00:48:01.810Z,997.34
2018-03-23T00:49:01.803Z,997.31
2018-03-23T00:50:01.770Z,997.27
2018-03-23T00:51:01.752Z,997.28
2018-03-23T00:52:01.717Z,997.29
2018-03-23T00:53:01.699Z,997.27
2018-03-23T00:54:01.692Z,997.25
2018-03-23T00:55:01.643Z,997.22
2018-03-23T00:56:01.616Z,997.21
2018-03-23T00:57:01.590Z,997.20
2018-03-23T00:58:01.605Z,997.20
2018-03-23T00:59:01.563Z,997.18
2018-03-23T01:00:01.597Z,997.15
2018-03-23T01:01:01.552Z,997.14
2018-03-23T01:02:01.495Z,997.15
2018-03-23T01:03:01.501Z,997.15
2018-03-23T01:04:01.470Z,997.15
2018-03-23T01:05:01.436Z,997.12
2018-03-23T01:06:01.421Z,997.13
2018-03-23T01:07:01.428Z,997.11
2018-03-23T01:08:01.342Z,997.11
2018-03-23T01:09:01.334Z,997.10
2018-03-23T01:10:01.312Z,997.10
2018-03-23T01:11:01.295Z,997.07
2018-03-23T01:12:01.274Z,997.06
2018-03-23T01:13:01.301Z,997.09
2018-03-23T01:14:01.249Z,997.04
2018-03-23T01:15:01.280Z,997.04
2018-03-23T01:16:01.197Z,997.03
2018-03-23T01:17:01.150Z,997.02
2018-03-23T01:18:01.108Z,997.03
2018-03-23T01:19:01.138Z,997.02
2018-03-23T01:20:01.060Z,997.02
2018-03-23T01:21:01.098Z,996.99
2018-03-23T01:22:01.060Z,997.00
2018-03-23T01:23:01.047Z,996.97
2018-03-23T01:24:01.025Z,996.99
2018-03-23T01:25:01.020Z,996.98
2018-03-23T01:26:00.960Z,996.95
2018-03-23T01:27:00.984Z,996.94
2018-03-23T01:28:00.939Z,996.95
2018-03-23T01:29:00.914Z,996.93
2018-03-23T01:30:00.875Z,996.93
2018-03-23T01:31:00.825Z,996.92
2018-03-23T01:32:00.860Z,996.91
2018-03-23T01:34:23.588Z,996.86
2018-03-23T01:35:23.392Z,996.85
2018-03-23T01:36:23.360Z,996.86
2018-03-23T01:38:46.607Z,996.79
2018-03-23T01:39:46.409Z,996.81
2018-03-23T01:40:46.517Z,996.80
2018-03-23T01:41:46.519Z,996.79
2018-03-23T01:42:46.279Z,996.83
2018-03-23T01:45:09.328Z,996.76
2018-03-23T01:46:09.490Z,996.78
2018-03-23T01:47:09.462Z,996.71
2018-03-23T01:48:09.347Z,996.75
2018-03-23T01:49:09.053Z,996.72
2018-03-23T01:50:09.069Z,996.71
2018-03-23T01:51:18.421Z,996.73
